sensor_id;sensor_type;location;lat;lon;timestamp;temperature;humidity
36292;DHT22;22327;51.208;6.418;2023-05-07T00:02:13;19.40;99.90
36292;DHT22;22327;51.208;6.418;2023-05-07T00:04:38;19.40;99.90
36292;DHT22;22327;51.208;6.418;2023-05-07T00:07:04;19.50;99.90
36292;DHT22;22327;51.208;6.418;2023-05-07T00:09:30;19.40;99.90
36292;DHT22;22327;51.208;6.418;2023-05-07T00:11:56;19.40;99.90
36292;DHT22;22327;51.208;6.418;2023-05-07T00:14:22;19.40;99.90
36292;DHT22;22327;51.208;6.418;2023-05-07T00:16:47;19.40;99.90
36292;DHT22;22327;51.208;6.418;2023-05-07T00:19:13;19.40;99.90
36292;DHT22;22327;51.208;6.418;2023-05-07T00:21:38;19.40;99.90
36292;DHT22;22327;51.208;6.418;2023-05-07T00:24:04;19.40;99.90
36292;DHT22;22327;51.208;6.418;2023-05-07T00:26:30;19.40;99.90
36292;DHT22;22327;51.208;6.418;2023-05-07T00:28:55;19.40;99.90
36292;DHT22;22327;51.208;6.418;2023-05-07T00:31:21;19.50;99.90
36292;DHT22;22327;51.208;6.418;2023-05-07T00:33:46;19.50;99.90
36292;DHT22;22327;51.208;6.418;2023-05-07T00:36:12;19.50;99.90
36292;DHT22;22327;51.208;6.418;2023-05-07T00:38:37;19.50;99.90
36292;DHT22;22327;51.208;6.418;2023-05-07T00:41:03;19.40;99.90
36292;DHT22;22327;51.208;6.418;2023-05-07T00:43:28;19.40;99.90
36292;DHT22;22327;51.208;6.418;2023-05-07T00:45:55;19.40;99.90
36292;DHT22;22327;51.208;6.418;2023-05-07T00:48:21;19.40;99.90
36292;DHT22;22327;51.208;6.418;2023-05-07T00:50:46;19.40;99.90
36292;DHT22;22327;51.208;6.418;2023-05-07T00:53:13;19.40;99.90
36292;DHT22;22327;51.208;6.418;2023-05-07T00:55:39;19.30;99.90
36292;DHT22;22327;51.208;6.418;2023-05-07T00:58:04;19.30;99.90
36292;DHT22;22327;51.208;6.418;2023-05-07T01:00:31;19.30;99.90
36292;DHT22;22327;51.208;6.418;2023-05-07T01:02:57;19.30;99.90
36292;DHT22;22327;51.208;6.418;2023-05-07T01:05:23;19.30;99.90
36292;DHT22;22327;51.208;6.418;2023-05-07T01:07:50;19.40;99.90
36292;DHT22;22327;51.208;6.418;2023-05-07T01:10:17;19.30;99.90
36292;DHT22;22327;51.208;6.418;2023-05-07T01:12:44;19.40;99.90
36292;DHT22;22327;51.208;6.418;2023-05-07T01:15:10;19.30;99.90
36292;DHT22;22327;51.208;6.418;2023-05-07T01:17:36;19.40;99.90
36292;DHT22;22327;51.208;6.418;2023-05-07T01:20:04;19.40;99.90
36292;DHT22;22327;51.208;6.418;2023-05-07T01:22:34;19.30;99.90
36292;DHT22;22327;51.208;6.418;2023-05-07T01:25:02;19.30;99.90
36292;DHT22;22327;51.208;6.418;2023-05-07T01:27:28;19.40;99.90
36292;DHT22;22327;51.208;6.418;2023-05-07T01:29:54;19.30;99.90
36292;DHT22;22327;51.208;6.418;2023-05-07T01:32:32;19.30;99.90
36292;DHT22;22327;51.208;6.418;2023-05-07T01:35:00;19.20;99.90
36292;DHT22;22327;51.208;6.418;2023-05-07T01:37:26;19.10;99.90
36292;DHT22;22327;51.208;6.418;2023-05-07T01:39:52;19.10;99.90
36292;DHT22;22327;51.208;6.418;2023-05-07T01:42:19;19.00;99.90
36292;DHT22;22327;51.208;6.418;2023-05-07T01:44:45;19.00;99.90
36292;DHT22;22327;51.208;6.418;2023-05-07T01:47:10;19.00;99.90
36292;DHT22;22327;51.208;6.418;2023-05-07T01:49:37;19.00;99.90
36292;DHT22;22327;51.208;6.418;2023-05-07T01:52:02;18.90;99.90
36292;DHT22;22327;51.208;6.418;2023-05-07T01:54:28;18.90;99.90
36292;DHT22;22327;51.208;6.418;2023-05-07T01:56:56;19.00;99.90
36292;DHT22;22327;51.208;6.418;2023-05-07T01:59:21;18.90;99.90
36292;DHT22;22327;51.208;6.418;2023-05-07T02:01:47;18.90;99.90
36292;DHT22;22327;51.208;6.418;2023-05-07T02:04:13;18.90;99.90
36292;DHT22;22327;51.208;6.418;2023-05-07T02:06:38;18.80;99.90
36292;DHT22;22327;51.208;6.418;2023-05-07T02:09:04;18.80;99.90
36292;DHT22;22327;51.208;6.418;2023-05-07T02:11:29;18.80;99.90
36292;DHT22;22327;51.208;6.418;2023-05-07T02:13:55;18.80;99.90
36292;DHT22;22327;51.208;6.418;2023-05-07T02:16:21;18.80;99.90
36292;DHT22;22327;51.208;6.418;2023-05-07T02:18:47;18.80;99.90
36292;DHT22;22327;51.208;6.418;2023-05-07T02:21:13;18.80;99.90
36292;DHT22;22327;51.208;6.418;2023-05-07T02:23:38;18.80;99.90
36292;DHT22;22327;51.208;6.418;2023-05-07T02:26:04;18.80;99.90
36292;DHT22;22327;51.208;6.418;2023-05-07T02:28:30;18.70;99.90
36292;DHT22;22327;51.208;6.418;2023-05-07T02:30:55;18.70;99.90
36292;DHT22;22327;51.208;6.418;2023-05-07T02:33:21;18.70;99.90
36292;DHT22;22327;51.208;6.418;2023-05-07T02:35:46;18.60;99.90
36292;DHT22;22327;51.208;6.418;2023-05-07T02:38:12;18.60;99.90
36292;DHT22;22327;51.208;6.418;2023-05-07T02:40:37;18.60;99.90
36292;DHT22;22327;51.208;6.418;2023-05-07T02:43:06;18.60;99.90
36292;DHT22;22327;51.208;6.418;2023-05-07T02:45:33;18.60;99.90
36292;DHT22;22327;51.208;6.418;2023-05-07T02:47:58;18.50;99.90
36292;DHT22;22327;51.208;6.418;2023-05-07T02:50:24;18.50;99.90
36292;DHT22;22327;51.208;6.418;2023-05-07T02:52:50;18.50;99.90
36292;DHT22;22327;51.208;6.418;2023-05-07T02:55:16;18.50;99.90
36292;DHT22;22327;51.208;6.418;2023-05-07T02:57:41;18.40;99.90
36292;DHT22;22327;51.208;6.418;2023-05-07T03:00:14;18.40;99.90
36292;DHT22;22327;51.208;6.418;2023-05-07T03:02:40;18.40;99.90
36292;DHT22;22327;51.208;6.418;2023-05-07T03:05:06;18.40;99.90
36292;DHT22;22327;51.208;6.418;2023-05-07T03:07:32;18.40;99.90
36292;DHT22;22327;51.208;6.418;2023-05-07T03:09:57;18.40;99.90
36292;DHT22;22327;51.208;6.418;2023-05-07T03:12:23;18.40;99.90
36292;DHT22;22327;51.208;6.418;2023-05-07T03:14:48;18.40;99.90
36292;DHT22;22327;51.208;6.418;2023-05-07T03:17:14;18.40;99.90
36292;DHT22;22327;51.208;6.418;2023-05-07T03:19:41;18.40;99.90
36292;DHT22;22327;51.208;6.418;2023-05-07T03:22:06;18.50;99.90
36292;DHT22;22327;51.208;6.418;2023-05-07T03:24:32;18.40;99.90
36292;DHT22;22327;51.208;6.418;2023-05-07T03:26:57;18.50;99.90
36292;DHT22;22327;51.208;6.418;2023-05-07T03:29:23;18.50;99.90
36292;DHT22;22327;51.208;6.418;2023-05-07T03:31:49;18.60;99.90
36292;DHT22;22327;51.208;6.418;2023-05-07T03:34:14;18.60;99.90
36292;DHT22;22327;51.208;6.418;2023-05-07T03:36:40;18.50;99.90
36292;DHT22;22327;51.208;6.418;2023-05-07T03:39:06;18.50;99.90
36292;DHT22;22327;51.208;6.418;2023-05-07T03:41:32;18.40;99.90
36292;DHT22;22327;51.208;6.418;2023-05-07T03:43:58;18.50;99.90
36292;DHT22;22327;51.208;6.418;2023-05-07T03:46:23;18.50;99.90
36292;DHT22;22327;51.208;6.418;2023-05-07T03:48:51;18.50;99.90
36292;DHT22;22327;51.208;6.418;2023-05-07T03:51:16;18.40;99.90
36292;DHT22;22327;51.208;6.418;2023-05-07T03:53:42;18.40;99.90
36292;DHT22;22327;51.208;6.418;2023-05-07T03:56:07;18.40;99.90
36292;DHT22;22327;51.208;6.418;2023-05-07T03:58:33;18.50;99.90
36292;DHT22;22327;51.208;6.418;2023-05-07T04:00:59;18.40;99.90
36292;DHT22;22327;51.208;6.418;2023-05-07T04:03:24;18.40;99.90
36292;DHT22;22327;51.208;6.418;2023-05-07T04:05:50;18.40;99.90
36292;DHT22;22327;51.208;6.418;2023-05-07T04:08:15;18.40;99.90
36292;DHT22;22327;51.208;6.418;2023-05-07T04:10:41;18.50;99.90
36292;DHT22;22327;51.208;6.418;2023-05-07T04:13:06;18.50;99.90
36292;DHT22;22327;51.208;6.418;2023-05-07T04:15:32;18.50;99.90
36292;DHT22;22327;51.208;6.418;2023-05-07T04:17:57;18.50;99.90
36292;DHT22;22327;51.208;6.418;2023-05-07T04:20:23;18.50;99.90
36292;DHT22;22327;51.208;6.418;2023-05-07T04:22:48;18.50;99.90
36292;DHT22;22327;51.208;6.418;2023-05-07T04:25:16;18.50;99.90
36292;DHT22;22327;51.208;6.418;2023-05-07T04:27:41;18.50;99.90
36292;DHT22;22327;51.208;6.418;2023-05-07T04:30:07;18.50;99.90
36292;DHT22;22327;51.208;6.418;2023-05-07T04:32:33;18.50;99.90
36292;DHT22;22327;51.208;6.418;2023-05-07T04:34:58;18.50;99.90
36292;DHT22;22327;51.208;6.418;2023-05-07T04:37:25;18.50;99.90
36292;DHT22;22327;51.208;6.418;2023-05-07T04:39:51;18.50;99.90
36292;DHT22;22327;51.208;6.418;2023-05-07T04:42:17;18.60;99.90
36292;DHT22;22327;51.208;6.418;2023-05-07T04:44:44;18.60;99.90
36292;DHT22;22327;51.208;6.418;2023-05-07T04:47:11;18.60;99.90
36292;DHT22;22327;51.208;6.418;2023-05-07T04:49:37;18.60;99.90
36292;DHT22;22327;51.208;6.418;2023-05-07T04:52:03;18.60;99.90
36292;DHT22;22327;51.208;6.418;2023-05-07T04:54:29;18.60;99.90
36292;DHT22;22327;51.208;6.418;2023-05-07T04:56:55;18.70;99.90
36292;DHT22;22327;51.208;6.418;2023-05-07T04:59:20;18.80;99.90
36292;DHT22;22327;51.208;6.418;2023-05-07T05:01:46;18.80;99.90
36292;DHT22;22327;51.208;6.418;2023-05-07T05:04:12;18.90;99.90
36292;DHT22;22327;51.208;6.418;2023-05-07T05:06:38;18.90;99.90
36292;DHT22;22327;51.208;6.418;2023-05-07T05:09:03;19.00;99.90
36292;DHT22;22327;51.208;6.418;2023-05-07T05:11:30;19.10;99.90
36292;DHT22;22327;51.208;6.418;2023-05-07T05:13:56;19.00;99.90
36292;DHT22;22327;51.208;6.418;2023-05-07T05:16:21;19.10;99.90
36292;DHT22;22327;51.208;6.418;2023-05-07T05:18:47;19.10;99.90
36292;DHT22;22327;51.208;6.418;2023-05-07T05:21:12;19.10;99.90
36292;DHT22;22327;51.208;6.418;2023-05-07T05:23:38;19.10;99.90
36292;DHT22;22327;51.208;6.418;2023-05-07T05:26:04;19.20;99.90
36292;DHT22;22327;51.208;6.418;2023-05-07T05:28:29;19.30;99.90
36292;DHT22;22327;51.208;6.418;2023-05-07T05:30:55;19.40;99.60
36292;DHT22;22327;51.208;6.418;2023-05-07T05:33:21;19.40;99.60
36292;DHT22;22327;51.208;6.418;2023-05-07T05:35:46;19.50;99.30
36292;DHT22;22327;51.208;6.418;2023-05-07T05:38:12;19.60;99.20
36292;DHT22;22327;51.208;6.418;2023-05-07T05:40:37;19.70;98.90
36292;DHT22;22327;51.208;6.418;2023-05-07T05:43:02;19.80;98.60
36292;DHT22;22327;51.208;6.418;2023-05-07T05:45:28;19.80;98.30
36292;DHT22;22327;51.208;6.418;2023-05-07T05:47:56;19.80;98.10
36292;DHT22;22327;51.208;6.418;2023-05-07T05:50:21;19.90;98.20
36292;DHT22;22327;51.208;6.418;2023-05-07T05:52:47;19.90;98.40
36292;DHT22;22327;51.208;6.418;2023-05-07T05:55:12;20.10;98.00
36292;DHT22;22327;51.208;6.418;2023-05-07T05:57:38;20.20;97.90
36292;DHT22;22327;51.208;6.418;2023-05-07T06:00:04;20.30;97.80
36292;DHT22;22327;51.208;6.418;2023-05-07T06:02:30;20.50;97.50
36292;DHT22;22327;51.208;6.418;2023-05-07T06:04:55;20.50;96.60
36292;DHT22;22327;51.208;6.418;2023-05-07T06:07:21;20.50;96.90
36292;DHT22;22327;51.208;6.418;2023-05-07T06:09:46;20.60;96.60
36292;DHT22;22327;51.208;6.418;2023-05-07T06:12:12;20.60;96.70
36292;DHT22;22327;51.208;6.418;2023-05-07T06:14:37;20.80;96.90
36292;DHT22;22327;51.208;6.418;2023-05-07T06:17:03;21.00;96.60
36292;DHT22;22327;51.208;6.418;2023-05-07T06:19:28;21.20;96.00
36292;DHT22;22327;51.208;6.418;2023-05-07T06:21:54;21.40;95.90
36292;DHT22;22327;51.208;6.418;2023-05-07T06:24:22;21.60;96.00
36292;DHT22;22327;51.208;6.418;2023-05-07T06:26:47;22.00;95.50
36292;DHT22;22327;51.208;6.418;2023-05-07T06:29:13;22.60;94.90
36292;DHT22;22327;51.208;6.418;2023-05-07T06:31:38;23.10;93.00
36292;DHT22;22327;51.208;6.418;2023-05-07T06:34:04;23.50;91.70
36292;DHT22;22327;51.208;6.418;2023-05-07T06:36:30;23.70;91.20
36292;DHT22;22327;51.208;6.418;2023-05-07T06:38:55;23.80;91.30
36292;DHT22;22327;51.208;6.418;2023-05-07T06:41:21;24.10;90.30
36292;DHT22;22327;51.208;6.418;2023-05-07T06:43:47;24.20;89.10
36292;DHT22;22327;51.208;6.418;2023-05-07T06:46:12;24.20;88.20
36292;DHT22;22327;51.208;6.418;2023-05-07T06:48:38;24.40;87.70
36292;DHT22;22327;51.208;6.418;2023-05-07T06:51:05;24.90;86.90
36292;DHT22;22327;51.208;6.418;2023-05-07T06:53:31;25.40;84.60
36292;DHT22;22327;51.208;6.418;2023-05-07T06:55:56;25.80;83.10
36292;DHT22;22327;51.208;6.418;2023-05-07T06:58:22;25.90;80.90
36292;DHT22;22327;51.208;6.418;2023-05-07T07:00:48;26.10;79.90
36292;DHT22;22327;51.208;6.418;2023-05-07T07:03:13;26.50;79.60
36292;DHT22;22327;51.208;6.418;2023-05-07T07:05:41;27.00;77.70
36292;DHT22;22327;51.208;6.418;2023-05-07T07:08:07;27.60;75.00
36292;DHT22;22327;51.208;6.418;2023-05-07T07:10:32;28.00;73.20
36292;DHT22;22327;51.208;6.418;2023-05-07T07:12:58;28.20;71.20
36292;DHT22;22327;51.208;6.418;2023-05-07T07:15:24;28.50;70.90
36292;DHT22;22327;51.208;6.418;2023-05-07T07:17:50;28.80;68.20
36292;DHT22;22327;51.208;6.418;2023-05-07T07:20:16;28.70;65.80
36292;DHT22;22327;51.208;6.418;2023-05-07T07:22:41;28.50;66.30
36292;DHT22;22327;51.208;6.418;2023-05-07T07:25:07;28.20;65.70
36292;DHT22;22327;51.208;6.418;2023-05-07T07:27:33;27.90;65.90
36292;DHT22;22327;51.208;6.418;2023-05-07T07:29:58;27.60;67.30
36292;DHT22;22327;51.208;6.418;2023-05-07T07:32:24;27.40;68.50
36292;DHT22;22327;51.208;6.418;2023-05-07T07:34:49;27.10;69.50
36292;DHT22;22327;51.208;6.418;2023-05-07T07:37:15;26.90;68.90
36292;DHT22;22327;51.208;6.418;2023-05-07T07:39:40;26.80;70.20
36292;DHT22;22327;51.208;6.418;2023-05-07T07:42:06;26.90;70.70
36292;DHT22;22327;51.208;6.418;2023-05-07T07:44:32;27.10;69.30
36292;DHT22;22327;51.208;6.418;2023-05-07T07:46:57;27.30;70.20
36292;DHT22;22327;51.208;6.418;2023-05-07T07:49:23;27.50;69.10
36292;DHT22;22327;51.208;6.418;2023-05-07T07:51:48;27.80;67.20
36292;DHT22;22327;51.208;6.418;2023-05-07T07:54:14;28.10;66.20
36292;DHT22;22327;51.208;6.418;2023-05-07T07:56:39;28.20;64.80
36292;DHT22;22327;51.208;6.418;2023-05-07T07:59:05;28.30;65.30
36292;DHT22;22327;51.208;6.418;2023-05-07T08:01:31;28.70;66.00
36292;DHT22;22327;51.208;6.418;2023-05-07T08:03:56;29.30;62.50
36292;DHT22;22327;51.208;6.418;2023-05-07T08:06:24;29.70;59.70
36292;DHT22;22327;51.208;6.418;2023-05-07T08:08:51;30.10;59.60
36292;DHT22;22327;51.208;6.418;2023-05-07T08:11:16;30.50;58.90
36292;DHT22;22327;51.208;6.418;2023-05-07T08:13:42;30.80;56.30
36292;DHT22;22327;51.208;6.418;2023-05-07T08:16:08;31.00;55.80
36292;DHT22;22327;51.208;6.418;2023-05-07T08:18:33;30.90;55.00
36292;DHT22;22327;51.208;6.418;2023-05-07T08:20:59;30.60;54.50
36292;DHT22;22327;51.208;6.418;2023-05-07T08:23:24;30.40;54.80
36292;DHT22;22327;51.208;6.418;2023-05-07T08:25:50;30.20;55.20
36292;DHT22;22327;51.208;6.418;2023-05-07T08:28:16;29.90;55.20
36292;DHT22;22327;51.208;6.418;2023-05-07T08:30:42;29.80;55.90
36292;DHT22;22327;51.208;6.418;2023-05-07T08:33:09;29.50;56.80
36292;DHT22;22327;51.208;6.418;2023-05-07T08:35:35;29.20;57.20
36292;DHT22;22327;51.208;6.418;2023-05-07T08:38:00;28.80;57.90
36292;DHT22;22327;51.208;6.418;2023-05-07T08:40:26;28.80;58.00
36292;DHT22;22327;51.208;6.418;2023-05-07T08:42:53;28.40;58.30
36292;DHT22;22327;51.208;6.418;2023-05-07T08:45:19;28.40;59.90
36292;DHT22;22327;51.208;6.418;2023-05-07T08:47:58;28.30;59.20
36292;DHT22;22327;51.208;6.418;2023-05-07T08:50:24;28.30;60.00
36292;DHT22;22327;51.208;6.418;2023-05-07T08:52:49;28.60;62.00
36292;DHT22;22327;51.208;6.418;2023-05-07T08:55:15;29.30;62.20
36292;DHT22;22327;51.208;6.418;2023-05-07T08:57:41;30.60;59.00
36292;DHT22;22327;51.208;6.418;2023-05-07T09:00:07;31.80;55.20
36292;DHT22;22327;51.208;6.418;2023-05-07T09:02:35;33.00;53.10
36292;DHT22;22327;51.208;6.418;2023-05-07T09:05:01;34.20;50.80
36292;DHT22;22327;51.208;6.418;2023-05-07T09:07:27;35.00;49.70
36292;DHT22;22327;51.208;6.418;2023-05-07T09:09:53;35.70;45.60
36292;DHT22;22327;51.208;6.418;2023-05-07T09:12:21;35.90;44.50
36292;DHT22;22327;51.208;6.418;2023-05-07T09:14:46;35.80;42.20
36292;DHT22;22327;51.208;6.418;2023-05-07T09:17:12;35.50;42.50
36292;DHT22;22327;51.208;6.418;2023-05-07T09:19:38;34.70;41.60
36292;DHT22;22327;51.208;6.418;2023-05-07T09:22:05;34.10;44.00
36292;DHT22;22327;51.208;6.418;2023-05-07T09:24:32;33.80;43.80
36292;DHT22;22327;51.208;6.418;2023-05-07T09:27:04;33.50;44.90
36292;DHT22;22327;51.208;6.418;2023-05-07T09:29:30;33.60;44.90
36292;DHT22;22327;51.208;6.418;2023-05-07T09:32:01;34.00;42.90
36292;DHT22;22327;51.208;6.418;2023-05-07T09:34:29;34.10;42.70
36292;DHT22;22327;51.208;6.418;2023-05-07T09:36:55;33.70;42.30
36292;DHT22;22327;51.208;6.418;2023-05-07T09:39:22;33.20;42.80
36292;DHT22;22327;51.208;6.418;2023-05-07T09:41:49;32.60;44.00
36292;DHT22;22327;51.208;6.418;2023-05-07T09:44:20;32.20;44.50
36292;DHT22;22327;51.208;6.418;2023-05-07T09:46:53;31.80;45.10
36292;DHT22;22327;51.208;6.418;2023-05-07T09:49:22;31.60;45.50
36292;DHT22;22327;51.208;6.418;2023-05-07T09:51:49;31.60;46.40
36292;DHT22;22327;51.208;6.418;2023-05-07T09:54:16;31.40;46.00
36292;DHT22;22327;51.208;6.418;2023-05-07T09:56:43;31.10;46.40
36292;DHT22;22327;51.208;6.418;2023-05-07T09:59:13;30.80;46.70
36292;DHT22;22327;51.208;6.418;2023-05-07T10:01:43;30.70;47.00
36292;DHT22;22327;51.208;6.418;2023-05-07T10:04:10;30.40;47.40
36292;DHT22;22327;51.208;6.418;2023-05-07T10:06:36;30.40;47.80
36292;DHT22;22327;51.208;6.418;2023-05-07T10:09:03;30.30;47.20
36292;DHT22;22327;51.208;6.418;2023-05-07T10:11:35;30.10;48.50
36292;DHT22;22327;51.208;6.418;2023-05-07T10:14:01;30.00;48.40
36292;DHT22;22327;51.208;6.418;2023-05-07T10:16:30;29.90;47.60
36292;DHT22;22327;51.208;6.418;2023-05-07T10:18:58;29.70;46.60
36292;DHT22;22327;51.208;6.418;2023-05-07T10:21:24;29.60;48.20
36292;DHT22;22327;51.208;6.418;2023-05-07T10:23:59;29.50;48.50
36292;DHT22;22327;51.208;6.418;2023-05-07T10:26:27;29.40;49.70
36292;DHT22;22327;51.208;6.418;2023-05-07T10:28:58;29.40;49.40
36292;DHT22;22327;51.208;6.418;2023-05-07T10:34:12;29.50;48.90
36292;DHT22;22327;51.208;6.418;2023-05-07T10:36:38;29.50;48.30
36292;DHT22;22327;51.208;6.418;2023-05-07T10:39:05;29.50;49.00
36292;DHT22;22327;51.208;6.418;2023-05-07T10:41:31;29.20;49.70
36292;DHT22;22327;51.208;6.418;2023-05-07T10:43:57;29.00;50.60
36292;DHT22;22327;51.208;6.418;2023-05-07T10:46:22;29.00;51.00
36292;DHT22;22327;51.208;6.418;2023-05-07T10:51:26;29.10;51.20
36292;DHT22;22327;51.208;6.418;2023-05-07T10:56:39;28.90;51.30
36292;DHT22;22327;51.208;6.418;2023-05-07T11:04:28;28.80;50.10
36292;DHT22;22327;51.208;6.418;2023-05-07T11:15:09;29.20;51.10
36292;DHT22;22327;51.208;6.418;2023-05-07T11:17:53;29.20;50.90
36292;DHT22;22327;51.208;6.418;2023-05-07T11:20:19;29.30;50.90
36292;DHT22;22327;51.208;6.418;2023-05-07T11:22:45;29.30;51.30
36292;DHT22;22327;51.208;6.418;2023-05-07T11:25:17;29.30;50.90
36292;DHT22;22327;51.208;6.418;2023-05-07T11:27:44;29.20;50.10
36292;DHT22;22327;51.208;6.418;2023-05-07T11:30:10;29.10;50.40
36292;DHT22;22327;51.208;6.418;2023-05-07T11:32:36;28.80;50.20
36292;DHT22;22327;51.208;6.418;2023-05-07T11:35:02;28.70;50.60
36292;DHT22;22327;51.208;6.418;2023-05-07T11:37:28;28.60;51.10
36292;DHT22;22327;51.208;6.418;2023-05-07T11:40:04;28.60;50.90
36292;DHT22;22327;51.208;6.418;2023-05-07T11:42:31;28.60;51.50
36292;DHT22;22327;51.208;6.418;2023-05-07T11:44:58;28.70;51.50
36292;DHT22;22327;51.208;6.418;2023-05-07T11:47:24;28.80;50.50
36292;DHT22;22327;51.208;6.418;2023-05-07T11:49:51;28.70;50.40
36292;DHT22;22327;51.208;6.418;2023-05-07T11:52:18;28.70;50.80
36292;DHT22;22327;51.208;6.418;2023-05-07T11:54:54;28.60;50.10
36292;DHT22;22327;51.208;6.418;2023-05-07T11:57:20;28.70;50.60
36292;DHT22;22327;51.208;6.418;2023-05-07T11:59:46;28.70;48.60
36292;DHT22;22327;51.208;6.418;2023-05-07T12:02:17;28.70;47.90
36292;DHT22;22327;51.208;6.418;2023-05-07T12:04:43;28.70;47.90
36292;DHT22;22327;51.208;6.418;2023-05-07T12:07:12;28.80;48.70
36292;DHT22;22327;51.208;6.418;2023-05-07T12:09:39;28.90;47.30
36292;DHT22;22327;51.208;6.418;2023-05-07T12:12:05;28.80;46.80
36292;DHT22;22327;51.208;6.418;2023-05-07T12:14:30;28.80;47.10
36292;DHT22;22327;51.208;6.418;2023-05-07T12:16:58;28.90;48.00
36292;DHT22;22327;51.208;6.418;2023-05-07T12:19:24;28.90;48.60
36292;DHT22;22327;51.208;6.418;2023-05-07T12:21:50;28.80;48.30
36292;DHT22;22327;51.208;6.418;2023-05-07T12:24:16;28.80;48.40
36292;DHT22;22327;51.208;6.418;2023-05-07T12:26:41;28.70;48.10
36292;DHT22;22327;51.208;6.418;2023-05-07T12:29:08;28.60;48.20
36292;DHT22;22327;51.208;6.418;2023-05-07T12:31:34;28.50;48.40
36292;DHT22;22327;51.208;6.418;2023-05-07T12:33:59;28.40;48.50
36292;DHT22;22327;51.208;6.418;2023-05-07T12:36:25;28.30;49.20
36292;DHT22;22327;51.208;6.418;2023-05-07T12:38:51;28.30;50.10
36292;DHT22;22327;51.208;6.418;2023-05-07T12:41:16;28.20;50.50
36292;DHT22;22327;51.208;6.418;2023-05-07T12:43:45;28.10;49.60
36292;DHT22;22327;51.208;6.418;2023-05-07T12:46:11;28.00;49.90
36292;DHT22;22327;51.208;6.418;2023-05-07T12:48:43;27.90;50.10
36292;DHT22;22327;51.208;6.418;2023-05-07T12:51:11;27.90;52.10
36292;DHT22;22327;51.208;6.418;2023-05-07T12:53:42;27.90;52.60
36292;DHT22;22327;51.208;6.418;2023-05-07T12:56:08;27.80;51.90
36292;DHT22;22327;51.208;6.418;2023-05-07T12:58:35;27.70;52.60
36292;DHT22;22327;51.208;6.418;2023-05-07T13:01:06;27.60;53.30
36292;DHT22;22327;51.208;6.418;2023-05-07T13:03:34;27.50;53.30
36292;DHT22;22327;51.208;6.418;2023-05-07T13:06:08;27.40;53.40
36292;DHT22;22327;51.208;6.418;2023-05-07T13:08:41;27.30;53.90
36292;DHT22;22327;51.208;6.418;2023-05-07T13:11:09;27.20;55.20
36292;DHT22;22327;51.208;6.418;2023-05-07T13:13:36;27.10;54.80
36292;DHT22;22327;51.208;6.418;2023-05-07T13:16:02;27.10;55.40
36292;DHT22;22327;51.208;6.418;2023-05-07T13:18:32;27.10;55.60
36292;DHT22;22327;51.208;6.418;2023-05-07T13:20:58;27.10;55.60
36292;DHT22;22327;51.208;6.418;2023-05-07T13:23:24;26.90;55.20
36292;DHT22;22327;51.208;6.418;2023-05-07T13:25:50;26.90;55.70
36292;DHT22;22327;51.208;6.418;2023-05-07T13:28:16;26.90;55.80
36292;DHT22;22327;51.208;6.418;2023-05-07T13:30:42;26.90;55.10
36292;DHT22;22327;51.208;6.418;2023-05-07T13:33:08;27.00;56.40
36292;DHT22;22327;51.208;6.418;2023-05-07T13:35:34;27.00;55.70
36292;DHT22;22327;51.208;6.418;2023-05-07T13:37:59;27.20;55.50
36292;DHT22;22327;51.208;6.418;2023-05-07T13:40:25;27.10;55.30
36292;DHT22;22327;51.208;6.418;2023-05-07T13:42:51;27.20;55.40
36292;DHT22;22327;51.208;6.418;2023-05-07T13:45:18;27.10;55.50
36292;DHT22;22327;51.208;6.418;2023-05-07T13:47:45;27.20;55.30
36292;DHT22;22327;51.208;6.418;2023-05-07T13:50:11;27.20;55.30
36292;DHT22;22327;51.208;6.418;2023-05-07T13:52:42;27.20;55.90
36292;DHT22;22327;51.208;6.418;2023-05-07T13:55:09;27.10;55.90
36292;DHT22;22327;51.208;6.418;2023-05-07T13:57:35;27.10;55.60
36292;DHT22;22327;51.208;6.418;2023-05-07T14:00:00;27.00;55.80
36292;DHT22;22327;51.208;6.418;2023-05-07T14:02:26;27.00;56.50
36292;DHT22;22327;51.208;6.418;2023-05-07T14:04:51;27.00;56.00
36292;DHT22;22327;51.208;6.418;2023-05-07T14:07:17;27.10;56.60
36292;DHT22;22327;51.208;6.418;2023-05-07T14:09:42;27.20;56.70
36292;DHT22;22327;51.208;6.418;2023-05-07T14:12:08;27.20;56.80
36292;DHT22;22327;51.208;6.418;2023-05-07T14:14:33;27.20;57.30
36292;DHT22;22327;51.208;6.418;2023-05-07T14:16:59;27.30;57.30
36292;DHT22;22327;51.208;6.418;2023-05-07T14:19:24;27.20;57.50
36292;DHT22;22327;51.208;6.418;2023-05-07T14:21:50;27.00;56.90
36292;DHT22;22327;51.208;6.418;2023-05-07T14:24:15;26.90;57.60
36292;DHT22;22327;51.208;6.418;2023-05-07T14:26:41;26.60;58.20
36292;DHT22;22327;51.208;6.418;2023-05-07T14:29:06;26.50;59.60
36292;DHT22;22327;51.208;6.418;2023-05-07T14:31:32;26.40;61.40
36292;DHT22;22327;51.208;6.418;2023-05-07T14:33:58;26.10;63.30
36292;DHT22;22327;51.208;6.418;2023-05-07T14:36:24;25.90;66.30
36292;DHT22;22327;51.208;6.418;2023-05-07T14:38:52;25.60;68.40
36292;DHT22;22327;51.208;6.418;2023-05-07T14:41:19;25.30;71.00
36292;DHT22;22327;51.208;6.418;2023-05-07T14:43:46;25.10;73.10
36292;DHT22;22327;51.208;6.418;2023-05-07T14:46:16;24.90;75.60
36292;DHT22;22327;51.208;6.418;2023-05-07T14:48:42;24.90;75.60
36292;DHT22;22327;51.208;6.418;2023-05-07T14:51:08;24.90;77.30
36292;DHT22;22327;51.208;6.418;2023-05-07T14:53:33;24.80;79.20
36292;DHT22;22327;51.208;6.418;2023-05-07T14:55:59;24.70;82.10
36292;DHT22;22327;51.208;6.418;2023-05-07T14:58:25;24.60;83.50
36292;DHT22;22327;51.208;6.418;2023-05-07T15:00:50;24.50;84.90
36292;DHT22;22327;51.208;6.418;2023-05-07T15:03:16;24.40;86.20
36292;DHT22;22327;51.208;6.418;2023-05-07T15:05:42;24.30;87.70
36292;DHT22;22327;51.208;6.418;2023-05-07T15:08:08;24.20;89.00
36292;DHT22;22327;51.208;6.418;2023-05-07T15:10:37;24.10;89.90
36292;DHT22;22327;51.208;6.418;2023-05-07T15:13:07;23.90;92.10
36292;DHT22;22327;51.208;6.418;2023-05-07T15:15:33;23.40;93.70
36292;DHT22;22327;51.208;6.418;2023-05-07T15:17:58;22.90;95.00
36292;DHT22;22327;51.208;6.418;2023-05-07T15:20:25;22.60;96.60
36292;DHT22;22327;51.208;6.418;2023-05-07T15:22:51;22.40;97.50
36292;DHT22;22327;51.208;6.418;2023-05-07T15:25:17;22.40;97.70
36292;DHT22;22327;51.208;6.418;2023-05-07T15:27:42;22.40;98.00
36292;DHT22;22327;51.208;6.418;2023-05-07T15:30:08;22.60;98.20
36292;DHT22;22327;51.208;6.418;2023-05-07T15:32:36;22.70;98.20
36292;DHT22;22327;51.208;6.418;2023-05-07T15:35:02;22.90;98.00
36292;DHT22;22327;51.208;6.418;2023-05-07T15:37:30;23.00;97.60
36292;DHT22;22327;51.208;6.418;2023-05-07T15:39:56;23.20;97.60
36292;DHT22;22327;51.208;6.418;2023-05-07T15:42:21;23.30;97.40
36292;DHT22;22327;51.208;6.418;2023-05-07T15:44:47;23.40;96.70
36292;DHT22;22327;51.208;6.418;2023-05-07T15:47:13;23.40;96.00